M I D A S
Marine Information and Data Acquisition System
Tripno 906 of the Zeeleeuw from 2005-05-27 06:47:20 to 2005-05-27 12:54:50
Back to CruiseResearch ActivitiesStationsMapUnderway DataData graphs

EquipmentUnitsComment
TimeDGPSUTC
LatitudeDGPSDM.mWGS84
LongitudeDGPSDM.mWGS84
HeadingGyrodeg 
SOGDGPSknotsSpeed over ground
COGDGPSdegCourse over ground
DepthEcho soundermeters200 kHz
Missing or incorrect values are displayed as -999
Navigation data collected by the RV Zeeleeuw from 2005-05-27 06:38:38 to 2005-05-27 13:02:10
Time Latitude Longitude Heading SOG COG Depth
2005-05-27 06:39:42 51°13.603 2°56.079 111.4 3 292 -999
2005-05-27 06:40:42 51°13.627 2°55.981 118.2 4.6 293 -999
2005-05-27 06:41:42 51°13.675 2°55.863 129.9 5.7 307 -999
2005-05-27 06:42:43 51°13.741 2°55.74 139.3 6.1 314 -999
2005-05-27 06:43:42 51°13.81 2°55.67 163.3 3.5 337 8.7
2005-05-27 06:44:43 51°13.853 2°55.644 164.7 3.6 340 -999
2005-05-27 06:45:42 51°13.925 2°55.632 190.2 4.5 3 -999
2005-05-27 06:46:43 51°13.929 2°55.593 250.6 3.5 249 9.8
2005-05-27 06:47:42 51°13.928 2°55.592 289.8 0.9 292 -999
2005-05-27 06:48:43 51°13.995 2°55.511 331.8 7.1 329 9.4
2005-05-27 06:49:42 51°14.124 2°55.415 342.3 9.3 338 9.9
2005-05-27 06:50:43 51°14.263 2°55.28 326.2 10 323 9.9
2005-05-27 06:51:42 51°14.373 2°55.065 310.6 11.1 305 9.7
2005-05-27 06:52:42 51°14.443 2°54.789 297 11.5 288 10.1
2005-05-27 06:53:43 51°14.454 2°54.438 273.8 14.2 267 9.8
2005-05-27 06:54:42 51°14.396 2°54.07 253 14.7 249 9.2
2005-05-27 06:55:42 51°14.281 2°53.723 240.1 14.8 237 9.1
2005-05-27 06:56:42 51°14.153 2°53.392 241 14.8 239 9.2
2005-05-27 06:57:42 51°14.026 2°53.057 241.3 14.7 238 9.5
2005-05-27 06:58:42 51°13.897 2°52.724 240.7 14.7 239 9.8
2005-05-27 06:59:42 51°13.77 2°52.39 240.9 14.6 238 9.9
2005-05-27 07:00:43 51°13.643 2°52.05 241.6 14.7 239 10
2005-05-27 07:01:43 51°13.52 2°51.713 241.8 14.6 239 10
2005-05-27 07:02:42 51°13.398 2°51.384 242.2 14.7 240 10.2
2005-05-27 07:03:42 51°13.275 2°51.05 241.8 14.6 240 10.3
2005-05-27 07:04:43 51°13.151 2°50.707 242.3 14.7 240 10.4
2005-05-27 07:05:42 51°13.029 2°50.379 241.9 14.7 240 10.5
2005-05-27 07:06:42 51°12.906 2°50.043 242.6 14.7 240 10.6
2005-05-27 07:07:43 51°12.782 2°49.702 242.4 14.6 240 10.7
2005-05-27 07:08:42 51°12.661 2°49.368 242.6 14.6 240 10.8
2005-05-27 07:09:43 51°12.539 2°49.031 242.5 14.6 240 10.9
2005-05-27 07:10:42 51°12.416 2°48.699 242.1 14.6 240 10.8
2005-05-27 07:11:42 51°12.296 2°48.368 242.7 14.6 240 10.9
2005-05-27 07:12:42 51°12.173 2°48.033 242.3 14.7 240 10.9
2005-05-27 07:13:42 51°12.054 2°47.693 246.2 14.7 243 10.8
2005-05-27 07:14:42 51°11.949 2°47.341 247.9 14.7 245 10.9
2005-05-27 07:15:42 51°11.841 2°46.99 247.4 14.7 244 10.8
2005-05-27 07:16:43 51°11.734 2°46.632 247.6 14.7 244 11
2005-05-27 07:17:42 51°11.629 2°46.288 246.9 14.7 244 10.9
2005-05-27 07:18:43 51°11.54 2°45.919 255.2 14.7 252 10.9
2005-05-27 07:19:42 51°11.461 2°45.558 254.3 14.7 250 11
2005-05-27 07:20:42 51°11.382 2°45.189 254.9 14.7 251 11
2005-05-27 07:21:42 51°11.309 2°44.815 257.6 14.8 253 11.1
2005-05-27 07:22:42 51°11.24 2°44.436 257.2 14.8 254 11.1
2005-05-27 07:23:42 51°11.171 2°44.064 257.3 14.8 254 11.2
2005-05-27 07:24:43 51°11.104 2°43.681 257.6 14.8 254 11.2
2005-05-27 07:25:43 51°11.036 2°43.305 257.1 14.8 254 11.2
2005-05-27 07:26:42 51°10.969 2°42.935 257.2 14.7 254 11.3
2005-05-27 07:27:42 51°10.902 2°42.562 258.3 14.6 255 11.3
2005-05-27 07:28:43 51°10.833 2°42.185 257.2 14.6 254 11.3
2005-05-27 07:29:42 51°10.769 2°41.819 257.6 14.6 255 11.3
2005-05-27 07:30:42 51°10.702 2°41.445 257.4 14.7 254 11.3
2005-05-27 07:31:42 51°10.636 2°41.07 256.9 14.7 254 11.4
2005-05-27 07:32:42 51°10.569 2°40.693 256.9 14.8 254 11.5
2005-05-27 07:33:42 51°10.504 2°40.315 258.1 14.8 256 12.1
2005-05-27 07:34:43 51°10.444 2°39.927 258.9 14.8 256 12.6
2005-05-27 07:35:42 51°10.388 2°39.551 259.1 14.9 257 13.2
2005-05-27 07:36:43 51°10.329 2°39.163 259.2 14.9 256 13.9
2005-05-27 07:37:42 51°10.273 2°38.786 258.6 14.9 256 14.7
2005-05-27 07:38:42 51°10.209 2°38.407 256.2 14.8 253 14.4
2005-05-27 07:39:42 51°10.141 2°38.025 257 14.8 255 15.1
2005-05-27 07:40:43 51°10.082 2°37.639 259.2 14.9 257 16
2005-05-27 07:41:42 51°10.028 2°37.262 260.8 14.9 258 16.2
2005-05-27 07:42:42 51°9.979 2°36.876 261.2 14.8 258 16.5
2005-05-27 07:43:42 51°9.945 2°36.487 266.8 14.9 264 16.4
2005-05-27 07:44:42 51°9.964 2°36.104 293.3 14.6 289 16.8
2005-05-27 07:45:43 51°10.111 2°35.808 329.6 13.8 323 13.1
2005-05-27 07:46:42 51°10.31 2°35.675 351.2 13.2 344 9.7
2005-05-27 07:47:43 51°10.515 2°35.757 29.2 12.5 22 9.5
2005-05-27 07:48:42 51°10.692 2°35.925 39.9 12.5 33 9.5
2005-05-27 07:49:43 51°10.845 2°36.15 50.1 12.4 44 9.9
2005-05-27 07:50:43 51°10.994 2°36.382 49.9 12.5 44 10.5
2005-05-27 07:51:43 51°11.145 2°36.609 49.5 12.5 43 11
2005-05-27 07:52:42 51°11.293 2°36.833 49.3 12.5 43 11.5
2005-05-27 07:53:42 51°11.444 2°37.061 49.3 12.5 43 12.1
2005-05-27 07:54:42 51°11.602 2°37.275 45.3 12.5 39 12.3
2005-05-27 07:55:42 51°11.774 2°37.467 41.5 12.5 34 12.3
2005-05-27 07:56:42 51°11.942 2°37.654 40.8 12.4 34 12.4
2005-05-27 07:57:42 51°12.114 2°37.834 37 12.4 29 12.1
2005-05-27 07:58:42 51°12.3 2°37.984 33.1 12.4 27 12
2005-05-27 07:59:42 51°12.483 2°38.131 34.1 12.4 28 11.8
2005-05-27 08:00:43 51°12.671 2°38.28 33.5 12.4 26 11.9
2005-05-27 08:01:43 51°12.857 2°38.428 34.3 12.5 26 12
2005-05-27 08:02:42 51°13.041 2°38.57 33.6 12.4 25 12.4
2005-05-27 08:03:43 51°13.232 2°38.714 34.1 12.4 26 12.8
2005-05-27 08:04:42 51°13.416 2°38.85 34.1 12.5 24 11.7
2005-05-27 08:05:43 51°13.608 2°38.997 34.6 12.5 26 12.6
2005-05-27 08:06:43 51°13.816 2°39.031 6.5 13.1 356 12.9
2005-05-27 08:07:43 51°14.034 2°38.998 5.5 13.2 355 11.8
2005-05-27 08:08:43 51°14.238 2°38.846 338.2 14 328 12.9
2005-05-27 08:09:42 51°14.363 2°38.542 294.9 14.5 288 16.3
2005-05-27 08:10:43 51°14.34 2°38.148 259.7 14.9 257 16.1
2005-05-27 08:11:43 51°14.253 2°37.779 244.2 14.9 244 15.8
2005-05-27 08:12:42 51°14.14 2°37.432 242 15 243 15.9
2005-05-27 08:13:42 51°14.025 2°37.073 242.5 15 243 16.5
2005-05-27 08:14:43 51°13.912 2°36.712 243.2 15.2 243 17.1
2005-05-27 08:15:43 51°13.799 2°36.353 243.1 15.1 243 17.5
2005-05-27 08:16:42 51°13.683 2°36.006 241.9 15 243 16.6
2005-05-27 08:17:43 51°13.573 2°35.641 244.5 15 244 13.8
2005-05-27 08:18:42 51°13.466 2°35.283 245.2 15 244 15.2
2005-05-27 08:19:42 51°13.358 2°34.929 245.2 15 244 14.8
2005-05-27 08:20:43 51°13.247 2°34.565 245.9 14.9 244 14.2
2005-05-27 08:21:42 51°13.139 2°34.215 245.1 14.9 243 13.6
2005-05-27 08:22:42 51°13.027 2°33.862 246 14.9 244 12
2005-05-27 08:23:43 51°12.913 2°33.503 245.9 14.9 243 13.3
2005-05-27 08:24:42 51°12.801 2°33.158 245.4 14.9 243 14.9
2005-05-27 08:25:43 51°12.684 2°32.805 244.7 14.8 241 16.3
2005-05-27 08:26:43 51°12.568 2°32.46 245.5 14.8 242 18.1
2005-05-27 08:27:42 51°12.453 2°32.116 245.5 14.8 242 19.5
2005-05-27 08:28:42 51°12.34 2°31.767 247.2 14.9 243 20.8
2005-05-27 08:29:43 51°12.223 2°31.409 246.3 15 243 20.9
2005-05-27 08:30:43 51°12.11 2°31.052 247.4 15.1 246 21.3
2005-05-27 08:31:43 51°12.035 2°30.671 257.7 15.1 253 20.5
2005-05-27 08:32:42 51°11.96 2°30.294 257.4 15.2 253 20.7
2005-05-27 08:33:42 51°11.893 2°29.904 259.6 15.3 255 20.6
2005-05-27 08:34:42 51°11.828 2°29.513 260.1 15.3 256 19.4
2005-05-27 08:35:43 51°11.758 2°29.115 259.1 15.3 254 17.3
2005-05-27 08:36:43 51°11.677 2°28.727 254.2 15.5 249 15.6
2005-05-27 08:37:43 51°11.588 2°28.339 254.2 15.6 250 14.3
2005-05-27 08:38:43 51°11.494 2°27.952 252.1 15.8 249 15.7
2005-05-27 08:39:43 51°11.406 2°27.557 251.5 15.7 250 18.8
2005-05-27 08:40:43 51°11.318 2°27.167 252.4 15.6 250 19.2
2005-05-27 08:41:42 51°11.23 2°26.789 251.4 15.5 250 18.3
2005-05-27 08:42:42 51°11.141 2°26.405 252.7 15.5 251 16.5
2005-05-27 08:43:42 51°11.053 2°26.019 252.4 15.5 250 14.8
2005-05-27 08:44:43 51°11.041 2°25.61 280.4 15.2 274 12.1
2005-05-27 08:45:42 51°11.137 2°25.261 319.3 14.3 310 18.8
2005-05-27 08:46:43 51°11.336 2°25.241 27.8 12.1 21 21.8
2005-05-27 08:47:42 51°11.502 2°25.415 42.2 12.3 36 20.1
2005-05-27 08:48:42 51°11.668 2°25.607 42.8 12.4 36 22.8
2005-05-27 08:49:43 51°11.836 2°25.803 42.5 12.3 37 22.3
2005-05-27 08:50:43 51°11.999 2°25.998 42.1 12.2 36 22.8
2005-05-27 08:51:43 51°12.161 2°26.193 42.8 12.3 37 23.4
2005-05-27 08:52:43 51°12.319 2°26.396 45 12.2 39 23
2005-05-27 08:53:42 51°12.474 2°26.595 44.7 12.2 38 23.2
2005-05-27 08:54:42 51°12.632 2°26.798 44.8 12.1 39 23.2
2005-05-27 08:55:43 51°12.791 2°27.004 45.5 12.1 39 22.6
2005-05-27 08:56:43 51°12.948 2°27.207 45 12.1 39 21.9
2005-05-27 08:57:43 51°13.103 2°27.409 45.2 12 40 21.8
2005-05-27 08:58:42 51°13.255 2°27.61 46 12.1 39 21.5
2005-05-27 08:59:42 51°13.411 2°27.816 45.5 12 40 21.1
2005-05-27 09:00:43 51°13.567 2°28.021 44.9 12.1 39 21.5
2005-05-27 09:01:42 51°13.719 2°28.223 45.2 12.1 40 21.9
2005-05-27 09:02:43 51°13.877 2°28.431 45.2 12.1 40 21.2
2005-05-27 09:03:42 51°14.029 2°28.634 45.1 12.2 40 23.3
2005-05-27 09:04:42 51°14.185 2°28.841 45 12.2 40 22.4
2005-05-27 09:05:42 51°14.342 2°29.049 45.7 12.3 40 23.4
2005-05-27 09:06:42 51°14.499 2°29.261 45.5 12.3 40 24.3
2005-05-27 09:07:43 51°14.657 2°29.471 45.7 12.3 40 24.6
2005-05-27 09:08:42 51°14.811 2°29.674 45 12.2 39 25
2005-05-27 09:09:43 51°14.969 2°29.882 45.4 12.2 39 25.1
2005-05-27 09:10:43 51°15.125 2°30.087 45 12.2 39 25.6
2005-05-27 09:11:43 51°15.28 2°30.292 45.4 12.1 39 25.4
2005-05-27 09:12:42 51°15.434 2°30.495 45.7 12 39 25.7
2005-05-27 09:13:43 51°15.589 2°30.7 45.9 12.1 39 25.7
2005-05-27 09:14:43 51°15.743 2°30.902 46 12.1 39 25.8
2005-05-27 09:15:42 51°15.898 2°31.1 45.1 12.1 38 25.5
2005-05-27 09:16:43 51°16.055 2°31.3 45 12.1 39 25.3
2005-05-27 09:17:43 51°16.211 2°31.5 45 12.1 38 26
2005-05-27 09:18:42 51°16.361 2°31.7 45.6 12 40 25.9
2005-05-27 09:19:43 51°16.521 2°31.908 44.7 12.1 39 25.1
2005-05-27 09:20:42 51°16.673 2°32.109 45.7 12.1 40 24.4
2005-05-27 09:21:43 51°16.83 2°32.313 45 12.2 38 24
2005-05-27 09:22:42 51°16.986 2°32.513 45.1 12.1 39 24.1
2005-05-27 09:23:43 51°17.141 2°32.715 44.6 12 38 24.2
2005-05-27 09:24:42 51°17.295 2°32.914 45 12 39 24.1
2005-05-27 09:25:42 51°17.451 2°33.11 44.5 11.9 39 25
2005-05-27 09:26:43 51°17.601 2°33.322 48.6 11.9 43 25.7
2005-05-27 09:27:42 51°17.747 2°33.525 48 11.7 41 26.2
2005-05-27 09:28:43 51°17.895 2°33.727 48.6 11.6 40 26.3
2005-05-27 09:29:42 51°18.038 2°33.924 49 11.5 40 26
2005-05-27 09:30:42 51°18.187 2°34.124 48.4 11.6 40 24.9
2005-05-27 09:31:42 51°18.326 2°34.333 54.5 11.4 49 23.6
2005-05-27 09:32:43 51°18.44 2°34.577 60.7 11.2 55 24.2
2005-05-27 09:33:43 51°18.55 2°34.818 60.1 11.3 53 23.4
2005-05-27 09:34:42 51°18.66 2°35.055 59.7 11.2 53 23.5
2005-05-27 09:35:42 51°18.772 2°35.297 58.6 11.3 53 20.3
2005-05-27 09:36:42 51°18.864 2°35.553 71.1 11.1 67 20.9
2005-05-27 09:37:42 51°18.895 2°35.84 87.1 11.1 89 21.2
2005-05-27 09:38:43 51°18.898 2°36.141 88.3 11.3 90 18.6
2005-05-27 09:39:42 51°18.904 2°36.438 87.3 11.3 88 19.6
2005-05-27 09:40:42 51°18.912 2°36.733 86.6 11.3 88 19.5
2005-05-27 09:41:43 51°18.92 2°37.037 87 11.2 88 14.4
2005-05-27 09:42:42 51°19.027 2°37.244 39.6 11.2 30 18.3
2005-05-27 09:43:42 51°19.214 2°37.321 17.3 11.9 5 18.8
2005-05-27 09:44:42 51°19.418 2°37.308 11.4 12.3 359 18.1
2005-05-27 09:45:42 51°19.62 2°37.322 15.9 12.2 4 21.6
2005-05-27 09:46:42 51°19.823 2°37.344 16.2 12.1 4 20.4
2005-05-27 09:47:42 51°20.025 2°37.369 17.2 12.2 5 20.8
2005-05-27 09:48:43 51°20.229 2°37.398 16.8 12.2 5 19.3
2005-05-27 09:49:43 51°20.431 2°37.429 16.2 12.2 6 21.7
2005-05-27 09:50:43 51°20.631 2°37.463 17.3 12 6 20.8
2005-05-27 09:51:43 51°20.83 2°37.498 17.1 12 7 22.6
2005-05-27 09:52:43 51°21.029 2°37.534 16.4 12.2 5 23.9
2005-05-27 09:53:43 51°21.231 2°37.566 16.8 12.1 6 24.2
2005-05-27 09:54:42 51°21.43 2°37.601 16.8 12.2 6 24.8
2005-05-27 09:55:43 51°21.633 2°37.637 16.8 12.1 6 25.2
2005-05-27 09:56:42 51°21.833 2°37.669 17.1 12.2 7 29
2005-05-27 09:57:42 51°22.034 2°37.71 19.1 12.1 9 29.3
2005-05-27 09:58:43 51°22.235 2°37.762 19.1 12 9 28.8
2005-05-27 09:59:43 51°22.432 2°37.81 19.3 12 9 29.6
2005-05-27 10:00:43 51°22.629 2°37.862 19.9 11.9 9 29
2005-05-27 10:01:43 51°22.823 2°37.916 19.9 11.8 9 28.8
2005-05-27 10:02:43 51°23.018 2°37.97 19.3 11.9 9 27.9
2005-05-27 10:03:43 51°23.194 2°38.088 37.4 11.5 32 26.1
2005-05-27 10:04:43 51°23.356 2°38.249 38.4 11.5 32 26.6
2005-05-27 10:05:43 51°23.499 2°38.451 47.8 11.3 43 26.1
2005-05-27 10:06:43 51°23.637 2°38.663 49.1 11.4 45 24.9
2005-05-27 10:07:42 51°23.77 2°38.871 49 11.4 44 24.8
2005-05-27 10:08:43 51°23.907 2°39.089 49.5 11.4 45 25.4
2005-05-27 10:09:42 51°24.041 2°39.297 48.5 11.4 44 25.7
2005-05-27 10:10:43 51°24.178 2°39.516 49.9 11.5 46 24.9
2005-05-27 10:11:42 51°24.313 2°39.727 48.6 11.4 44 24
2005-05-27 10:12:43 51°24.436 2°39.96 54.3 11.5 51 23.4
2005-05-27 10:13:43 51°24.557 2°40.197 54 11.4 50 25.2
2005-05-27 10:14:43 51°24.677 2°40.431 54.2 11.3 51 24.2
2005-05-27 10:15:43 51°24.798 2°40.669 55.2 11.6 52 25.3
2005-05-27 10:16:41 51°24.916 2°40.899 53.7 11.5 50 23.3
2005-05-27 10:17:42 51°25.038 2°41.136 54 11.3 50 24.4
2005-05-27 10:18:43 51°25.161 2°41.371 54.7 11.4 50 23.6
2005-05-27 10:19:43 51°25.283 2°41.598 54.5 11.3 49 25.4
2005-05-27 10:20:43 51°25.405 2°41.825 54 11.3 49 26
2005-05-27 10:21:42 51°25.525 2°42.05 54.2 11.2 50 24.9
2005-05-27 10:22:43 51°25.648 2°42.277 54.3 11.2 49 26.5
2005-05-27 10:23:43 51°25.771 2°42.503 54.7 11.2 49 23.3
2005-05-27 10:24:43 51°25.89 2°42.734 55.5 11.3 51 24.7
2005-05-27 10:25:43 51°25.999 2°42.979 59.1 11.2 55 25.2
2005-05-27 10:26:42 51°26.099 2°43.224 63.1 11.2 59 24
2005-05-27 10:27:42 51°26.188 2°43.481 64.7 11.2 61 24.1
2005-05-27 10:28:43 51°26.283 2°43.744 63.8 11.2 59 22.8
2005-05-27 10:29:43 51°26.376 2°44.006 64.7 11.2 61 26.8
2005-05-27 10:30:43 51°26.469 2°44.266 65.1 11.4 60 24.2
2005-05-27 10:31:43 51°26.563 2°44.528 64.3 11.4 60 26.1
2005-05-27 10:32:43 51°26.658 2°44.791 64.2 11.4 60 26.8
2005-05-27 10:33:43 51°26.752 2°45.054 64.1 11.3 60 27.2
2005-05-27 10:34:43 51°26.842 2°45.315 66.9 11.3 64 27.4
2005-05-27 10:35:43 51°26.919 2°45.588 68.9 11.3 65 29.5
2005-05-27 10:36:43 51°26.995 2°45.859 69.4 11.1 66 29
2005-05-27 10:37:42 51°27.071 2°46.127 69.6 11.1 66 29.3
2005-05-27 10:38:43 51°27.148 2°46.397 69.5 11.1 65 30.3
2005-05-27 10:39:43 51°27.22 2°46.668 69.4 11.2 67 30.7
2005-05-27 10:40:43 51°27.294 2°46.94 69.6 11.1 67 28.8
2005-05-27 10:41:43 51°27.367 2°47.212 69.6 11.1 67 27.7
2005-05-27 10:42:42 51°27.438 2°47.479 69.7 11.1 66 27.7
2005-05-27 10:43:43 51°27.513 2°47.757 69.5 11.2 66 26.4
2005-05-27 10:44:42 51°27.585 2°48.023 69.4 11.2 67 26
2005-05-27 10:45:42 51°27.658 2°48.299 69.2 11.1 67 26.1
2005-05-27 10:46:43 51°27.732 2°48.576 68.6 11.2 67 27.9
2005-05-27 10:47:42 51°27.806 2°48.845 68.6 11.2 66 25.9
2005-05-27 10:48:43 51°27.88 2°49.123 69.5 11.1 67 24.8
2005-05-27 10:49:42 51°27.951 2°49.397 69.9 11.2 68 26.2
2005-05-27 10:50:42 51°28.023 2°49.674 69 11.3 66 27.7
2005-05-27 10:51:42 51°28.096 2°49.95 69.6 11.3 67 27.3
2005-05-27 10:52:42 51°28.167 2°50.222 68.9 11.2 67 26.4
2005-05-27 10:53:42 51°28.239 2°50.499 69.8 11.2 68 27
2005-05-27 10:54:43 51°28.311 2°50.78 68.9 11.2 67 27.3
2005-05-27 10:55:42 51°28.347 2°51.059 94 11.4 101 27.2
2005-05-27 10:56:42 51°28.236 2°51.322 131.1 12.8 139 26.1
2005-05-27 10:57:43 51°28.067 2°51.55 132.5 12.9 140 24.7
2005-05-27 10:58:43 51°27.856 2°51.662 164.1 13.9 168 22.2
2005-05-27 10:59:43 51°27.633 2°51.512 220.8 15.2 220 20.2
2005-05-27 11:00:43 51°27.48 2°51.178 239.9 15.6 237 20.1
2005-05-27 11:01:43 51°27.346 2°50.823 243.9 15.5 240 19.8
2005-05-27 11:02:43 51°27.215 2°50.464 244.1 15.6 240 21.2
2005-05-27 11:03:43 51°27.084 2°50.1 244.4 15.6 240 21.7
2005-05-27 11:04:43 51°26.954 2°49.741 244.4 15.7 240 19.8
2005-05-27 11:05:43 51°26.826 2°49.377 245.3 15.6 241 18.4
2005-05-27 11:06:43 51°26.697 2°49.009 245.3 15.7 241 21.7
2005-05-27 11:07:43 51°26.572 2°48.647 244.9 15.7 241 21.5
2005-05-27 11:08:43 51°26.448 2°48.281 246.2 15.6 242 21.8
2005-05-27 11:09:42 51°26.327 2°47.921 246 15.6 241 21.4
2005-05-27 11:10:43 51°26.198 2°47.549 245.7 15.5 240 19.2
2005-05-27 11:11:42 51°26.079 2°47.196 246.3 15.4 241 21.2
2005-05-27 11:12:43 51°25.956 2°46.831 246.9 15.4 241 23.3
2005-05-27 11:13:43 51°25.833 2°46.474 246.2 15.2 241 24.2
2005-05-27 11:14:43 51°25.71 2°46.119 246.2 15.3 241 23
2005-05-27 11:15:43 51°25.542 2°45.839 206.2 14.6 205 25.1
2005-05-27 11:16:43 51°25.305 2°45.74 189.9 14.9 192 24.4
2005-05-27 11:17:43 51°25.065 2°45.635 191.2 14.9 196 24.6
2005-05-27 11:18:42 51°24.837 2°45.529 192 14.6 196 25.5
2005-05-27 11:19:43 51°24.599 2°45.47 178.6 14.1 185 24.3
2005-05-27 11:20:43 51°24.365 2°45.44 179.4 14.2 185 26.2
2005-05-27 11:21:43 51°24.152 2°45.52 151.6 12.9 155 26.1
2005-05-27 11:22:42 51°24.033 2°45.759 108.9 11.7 111 27.1
2005-05-27 11:23:43 51°24 2°46.067 93.1 11.5 92 26.9
2005-05-27 11:24:43 51°24.011 2°46.375 87 11.6 86 30.3
2005-05-27 11:25:42 51°24.018 2°46.674 88.4 11.6 88 28.6
2005-05-27 11:26:43 51°24.018 2°46.992 89.9 11.8 91 27.4
2005-05-27 11:27:43 51°24.017 2°47.302 89.7 11.8 91 24.6
2005-05-27 11:28:43 51°24.022 2°47.616 86.3 11.6 87 23.9
2005-05-27 11:29:43 51°24.032 2°47.924 85.6 11.7 86 23.3
2005-05-27 11:30:42 51°24.042 2°48.229 86.8 11.7 88 20.7
2005-05-27 11:31:43 51°24.051 2°48.546 86.4 11.6 87 22.6
2005-05-27 11:32:43 51°24.058 2°48.854 86.8 11.7 88 22.5
2005-05-27 11:33:43 51°24.066 2°49.167 87 11.7 89 22.5
2005-05-27 11:34:43 51°24.071 2°49.476 87 11.8 89 22.7
2005-05-27 11:35:43 51°24.073 2°49.793 87.9 11.8 90 21.9
2005-05-27 11:36:42 51°24.075 2°50.1 87.1 11.8 90 21.8
2005-05-27 11:37:42 51°24.078 2°50.414 87 11.8 91 22.1
2005-05-27 11:38:42 51°24.078 2°50.729 87.6 11.8 90 21.9
2005-05-27 11:39:42 51°23.993 2°51.002 137.5 13.1 147 20.7
2005-05-27 11:40:42 51°23.777 2°51.105 180 14.3 190 19.3
2005-05-27 11:41:43 51°23.547 2°50.965 208.9 14.9 212 16
2005-05-27 11:42:43 51°23.359 2°50.707 226.5 15 225 15.4
2005-05-27 11:43:42 51°23.186 2°50.431 228.1 14.9 226 14
2005-05-27 11:44:43 51°23.007 2°50.146 227.4 15 225 16.5
2005-05-27 11:45:43 51°22.832 2°49.86 228 14.8 225 12.6
2005-05-27 11:46:42 51°22.656 2°49.598 222.8 14.8 220 18.6
2005-05-27 11:47:43 51°22.465 2°49.336 222.5 14.8 221 21.8
2005-05-27 11:48:42 51°22.264 2°49.133 207 14.4 207 21.5
2005-05-27 11:49:43 51°22.05 2°48.958 207.5 14.5 210 23.3
2005-05-27 11:50:43 51°21.835 2°48.777 204.1 14.6 207 23.3
2005-05-27 11:51:43 51°21.617 2°48.598 204.3 14.8 207 23.2
2005-05-27 11:52:43 51°21.398 2°48.418 205.4 14.8 208 22.1
2005-05-27 11:53:43 51°21.18 2°48.243 203.9 14.5 206 20.4
2005-05-27 11:54:43 51°20.964 2°48.069 204.6 14.6 207 20
2005-05-27 11:55:43 51°20.751 2°47.892 205.6 14.5 207 19.6
2005-05-27 11:56:43 51°20.537 2°47.712 205.7 14.5 208 19.7
2005-05-27 11:57:43 51°20.325 2°47.532 205.8 14.5 209 19.5
2005-05-27 11:58:43 51°20.114 2°47.352 204.6 14.5 208 20.2
2005-05-27 11:59:42 51°19.906 2°47.175 205 14.4 208 20.8
2005-05-27 12:00:43 51°19.691 2°46.989 205.7 14.4 208 21.1
2005-05-27 12:01:42 51°19.484 2°46.803 209.1 14.6 211 21.5
2005-05-27 12:02:43 51°19.273 2°46.6 208.3 14.5 211 21.2
2005-05-27 12:03:42 51°19.069 2°46.404 208.3 14.5 211 21.6
2005-05-27 12:04:42 51°18.862 2°46.207 207.6 14.5 210 21.3
2005-05-27 12:05:43 51°18.648 2°46.009 208 14.5 210 21.1
2005-05-27 12:06:43 51°18.446 2°45.806 210.7 14.5 213 20.6
2005-05-27 12:07:43 51°18.24 2°45.6 209.7 14.5 212 20
2005-05-27 12:08:43 51°18.036 2°45.397 209.7 14.6 211 19.2
2005-05-27 12:09:42 51°17.836 2°45.201 210.3 14.4 212 18.1
2005-05-27 12:10:43 51°17.628 2°44.996 209.6 14.4 211 17.5
2005-05-27 12:11:43 51°17.42 2°44.799 210.2 14.5 210 17.4
2005-05-27 12:12:43 51°17.212 2°44.606 210.3 14.4 210 16.8
2005-05-27 12:13:43 51°17.004 2°44.411 210.9 14.5 210 16.2
2005-05-27 12:14:42 51°16.8 2°44.222 210.2 14.5 210 15.5
2005-05-27 12:15:43 51°16.585 2°44.029 210.4 14.5 209 15
2005-05-27 12:16:42 51°16.364 2°43.909 197.2 14.4 196 14.5
2005-05-27 12:17:42 51°16.128 2°43.887 177 13.9 174 12.8
2005-05-27 12:18:43 51°15.933 2°44.061 136 13.4 135 12
2005-05-27 12:19:43 51°15.809 2°44.357 118.9 13.4 120 12.6
2005-05-27 12:20:43 51°15.697 2°44.658 119.7 13.4 121 13.6
2005-05-27 12:21:43 51°15.581 2°44.957 121.2 13.3 121 13.4
2005-05-27 12:22:42 51°15.463 2°45.252 123 13.3 123 18.6
2005-05-27 12:23:42 51°15.343 2°45.546 122.5 13.4 123 17.5
2005-05-27 12:24:43 51°15.219 2°45.846 123.3 13.2 124 15.8
2005-05-27 12:25:43 51°15.097 2°46.14 123.3 13.2 123 13.2
2005-05-27 12:26:43 51°14.974 2°46.426 124.4 13.1 125 10.9
2005-05-27 12:27:43 51°14.85 2°46.711 124.3 13.2 125 10.4
2005-05-27 12:28:43 51°14.728 2°47.004 123.5 13.3 123 13.8
2005-05-27 12:29:43 51°14.606 2°47.295 124.1 13.1 123 12.9
2005-05-27 12:30:43 51°14.486 2°47.579 125.3 12.9 124 11.3
2005-05-27 12:31:43 51°14.403 2°47.889 107.1 12.8 106 12.2
2005-05-27 12:32:43 51°14.363 2°48.221 100 12.7 98 12.6
2005-05-27 12:33:43 51°14.364 2°48.556 88.5 12.6 83 12.7
2005-05-27 12:34:43 51°14.408 2°48.886 81.7 12.7 79 12.8
2005-05-27 12:35:43 51°14.447 2°49.215 82.7 12.7 79 12.7
2005-05-27 12:36:43 51°14.481 2°49.549 86.3 12.8 84 12.8
2005-05-27 12:37:43 51°14.494 2°49.891 89.9 12.8 87 12.6
2005-05-27 12:38:43 51°14.512 2°50.23 85.9 12.8 84 12.2
2005-05-27 12:39:43 51°14.54 2°50.568 85.6 13 83 11.9
2005-05-27 12:40:43 51°14.568 2°50.905 85 12.9 82 11.6
2005-05-27 12:41:43 51°14.599 2°51.246 84.7 13 81 11.3
2005-05-27 12:42:43 51°14.629 2°51.586 84.9 13 82 11.2
2005-05-27 12:43:43 51°14.658 2°51.922 84.6 12.9 82 11
2005-05-27 12:44:43 51°14.685 2°52.266 85.6 13 83 10.8
2005-05-27 12:45:43 51°14.712 2°52.608 85.6 13 83 10.7
2005-05-27 12:46:43 51°14.704 2°52.954 96.5 13.1 94 10.5
2005-05-27 12:47:43 51°14.689 2°53.302 96.6 13.3 94 10.5
2005-05-27 12:48:42 51°14.662 2°53.647 100.4 13.4 98 10.6
2005-05-27 12:49:43 51°14.626 2°54.006 103 13.3 99 12
2005-05-27 12:50:43 51°14.574 2°54.311 113.2 10.7 107 12
2005-05-27 12:51:43 51°14.522 2°54.591 113.5 11.3 109 11.7
2005-05-27 12:52:43 51°14.45 2°54.876 117.4 11.6 111 11.8
2005-05-27 12:53:43 51°14.35 2°55.105 133.5 10 128 11.7
2005-05-27 12:54:43 51°14.252 2°55.289 132.5 8.4 130 11.9
2005-05-27 12:55:43 51°14.149 2°55.403 156.5 7.2 153 4.7
2005-05-27 12:56:43 51°14.037 2°55.482 159.6 7.5 158 11.4
2005-05-27 12:57:43 51°13.918 2°55.566 157.1 8 154 11
2005-05-27 12:58:42 51°13.801 2°55.657 156 7.9 152 11.1
2005-05-27 12:59:43 51°13.709 2°55.78 133.7 5.9 129 13.2
2005-05-27 13:00:44 51°13.663 2°55.892 123.3 4.5 121 -999
2005-05-27 13:01:43 51°13.633 2°55.991 119.3 4.1 115 11.5